Terminal Aerodrome Forecast
Issued by NWS

Home | Current Version | Previous Version | Text Only | Print | Product List | Glossary On
Versions: 1 2 3 4 5 6 7 8 9 10 11 12 13 14 15 16 17 18 19 20 21
164
FTUS43 KAPX 231735
TAFPLN
TAF
KPLN 231735Z 2318/2418 35012G21KT P6SM OVC018
      TEMPO 2318/2320 5SM -SHSN
     FM240100 33010KT P6SM SCT015
     FM240600 34006KT P6SM SCT015
     FM240800 34005KT P6SM SCT250=

USA.gov is the U.S. government's official web portal to all federal, state and local government web resources and services.